Time;durP1;ratioP1;P1;durP2;ratioP2;P2;SDS_P1;SDS_P2;PMS_P1;PMS_P2;Temp;Humidity;BMP_temperature;BMP_pressure;BME280_temperature;BME280_humidity;BME280_pressure;Samples;Min_cycle;Max_cycle;Signal;HPM_P1;HPM_P2
2023/09/17 00:00:50;;;;;;;;;;;;;;;19.86;67.53;100241.34;3139534;28;19932;-75
2023/09/17 00:02:21;;;;;;;;;;;;;;;19.87;67.38;100250.97;3134345;28;20451;-76
2023/09/17 00:03:52;;;;;;;;;;;;;;;19.89;67.33;100249.06;3134069;28;20015;-76
2023/09/17 00:05:23;;;;;;;;;;;;;;;19.88;67.61;100247.38;3138537;28;19924;-76
2023/09/17 00:06:56;;;;;;;;;;;;;;;19.88;67.71;100253.50;3149748;28;19935;-76
2023/09/17 00:08:26;;;;;;;;;;;;;;;19.90;67.55;100253.38;3149038;28;19986;-76
2023/09/17 00:09:58;;;;;;;;;;;;;;;19.91;67.45;100250.63;3137769;28;19980;-76
2023/09/17 00:11:28;;;;;;;;;;;;;;;19.94;67.55;100254.84;3137925;28;20351;-76
2023/09/17 00:13:00;;;;;;;;;;;;;;;19.95;67.34;100248.56;3135379;28;19931;-76
2023/09/17 00:14:31;;;;;;;;;;;;;;;19.97;67.48;100246.66;3135651;28;20065;-75
2023/09/17 00:16:02;;;;;;;;;;;;;;;19.98;67.34;100246.53;3126379;28;20383;-75
2023/09/17 00:17:33;;;;;;;;;;;;;;;19.99;67.29;100247.38;3141938;28;19924;-75
2023/09/17 00:19:04;;;;;;;;;;;;;;;20.00;67.24;100241.97;3134416;28;19935;-76
2023/09/17 00:20:35;;;;;;;;;;;;;;;20.00;67.31;100247.25;3134311;28;20378;-75
2023/09/17 00:22:09;;;;;;;;;;;;;;;20.01;67.47;100237.53;3134381;28;19925;-75
2023/09/17 00:23:39;;;;;;;;;;;;;;;20.02;67.51;100239.19;3134111;28;19998;-75
2023/09/17 00:25:11;;;;;;;;;;;;;;;20.05;67.38;100241.59;3134172;28;20015;-75
2023/09/17 00:26:42;;;;;;;;;;;;;;;20.05;67.46;100236.31;3134253;28;20405;-75
2023/09/17 00:28:14;;;;;;;;;;;;;;;20.07;67.26;100242.34;3138887;28;19925;-75
2023/09/17 00:29:44;;;;;;;;;;;;;;;20.08;67.25;100237.88;3146973;28;19968;-76
2023/09/17 00:31:16;;;;;;;;;;;;;;;20.10;67.36;100242.09;3134365;28;19925;-76
2023/09/17 00:32:47;;;;;;;;;;;;;;;20.10;67.32;100236.81;3134029;28;19925;-76
2023/09/17 00:34:18;;;;;;;;;;;;;;;20.12;67.36;100237.53;3135788;28;20333;-76
2023/09/17 00:35:49;;;;;;;;;;;;;;;20.12;67.27;100232.25;3145397;28;19933;-76
2023/09/17 00:37:22;;;;;;;;;;;;;;;20.11;67.22;100235.84;3133859;28;19932;-76
2023/09/17 00:38:53;;;;;;;;;;;;;;;20.14;67.51;100240.03;3122238;28;19929;-74
2023/09/17 00:40:28;;;;;;;;;;;;;;;20.14;67.22;100235.63;3133377;28;19932;-74
2023/09/17 00:41:59;;;;;;;;;;;;;;;20.14;67.22;100235.63;3145762;28;19933;-74
2023/09/17 00:43:31;;;;;;;;;;;;;;;20.15;67.11;100232.00;3128382;28;19940;-74
2023/09/17 00:45:02;;;;;;;;;;;;;;;20.17;67.31;100234.53;3136275;28;19950;-74
2023/09/17 00:46:34;;;;;;;;;;;;;;;20.17;67.31;100232.75;3143019;28;20377;-73
2023/09/17 00:48:05;;;;;;;;;;;;;;;20.16;67.46;100238.97;3146550;28;19947;-74
2023/09/17 00:49:37;;;;;;;;;;;;;;;20.14;67.68;100230.34;3138427;28;19929;-74
2023/09/17 00:51:09;;;;;;;;;;;;;;;20.12;67.78;100234.06;3133581;28;20330;-73
2023/09/17 00:52:41;;;;;;;;;;;;;;;20.09;68.09;100226.38;3134832;28;19932;-74
2023/09/17 00:54:14;;;;;;;;;;;;;;;20.08;67.96;100224.66;3127148;28;19925;-76
2023/09/17 00:55:45;;;;;;;;;;;;;;;20.08;67.97;100222.84;3138943;28;20387;-76
2023/09/17 00:57:16;;;;;;;;;;;;;;;20.08;68.14;100227.31;3138726;28;19950;-74
2023/09/17 00:58:48;;;;;;;;;;;;;;;20.07;68.16;100223.81;3145627;28;19924;-74
2023/09/17 01:00:21;;;;;;;;;;;;;;;20.04;68.25;100226.72;3134374;28;19929;-73
2023/09/17 01:01:53;;;;;;;;;;;;;;;20.05;68.09;100222.25;3133868;28;19932;-74
2023/09/17 01:03:24;;;;;;;;;;;;;;;20.04;68.05;100226.72;3134062;28;19990;-73
2023/09/17 01:04:55;;;;;;;;;;;;;;;20.05;68.13;100228.38;3133632;28;20011;-73
2023/09/17 01:06:27;;;;;;;;;;;;;;;20.08;68.18;100227.31;3133917;28;19952;-73
2023/09/17 01:08:00;;;;;;;;;;;;;;;20.10;68.14;100230.69;3133793;28;20025;-73
2023/09/17 01:09:32;;;;;;;;;;;;;;;20.09;68.17;100227.22;3133775;28;19951;-74
2023/09/17 01:11:04;;;;;;;;;;;;;;;20.10;68.04;100231.53;3133973;28;19925;-73
2023/09/17 01:12:35;;;;;;;;;;;;;;;20.11;67.87;100232.34;3131776;28;19936;-74
2023/09/17 01:14:15;;;;;;;;;;;;;;;20.12;68.00;100234.91;3134013;28;20421;-74
2023/09/17 01:15:45;;;;;;;;;;;;;;;20.14;67.91;100230.34;3129373;28;20382;-74
2023/09/17 01:17:17;;;;;;;;;;;;;;;20.16;68.13;100230.19;3133289;28;20019;-73
2023/09/17 01:18:49;;;;;;;;;;;;;;;20.16;68.08;100233.69;3133706;28;19933;-73
2023/09/17 01:20:28;;;;;;;;;;;;;;;20.14;68.33;100226.81;3133599;28;19982;-73
2023/09/17 01:22:02;;;;;;;;;;;;;;;20.12;68.40;100229.59;3133793;28;19986;-73
2023/09/17 01:23:39;;;;;;;;;;;;;;;20.09;68.74;100224.56;3133769;28;19974;-75
2023/09/17 01:25:12;;;;;;;;;;;;;;;20.08;68.62;100222.84;3133388;28;19929;-74
2023/09/17 01:26:46;;;;;;;;;;;;;;;20.05;68.81;100217.81;3134226;28;19924;-75
2023/09/17 01:28:19;;;;;;;;;;;;;;;20.05;68.88;100216.97;3145442;28;19932;-75
2023/09/17 01:29:50;;;;;;;;;;;;;;;20.02;69.18;100218.06;3133243;28;20035;-75
2023/09/17 01:31:22;;;;;;;;;;;;;;;20.00;69.27;100220.00;3124974;28;19932;-75
2023/09/17 01:32:53;;;;;;;;;;;;;;;20.00;69.25;100222.63;3143566;28;19986;-75
2023/09/17 01:34:25;;;;;;;;;;;;;;;19.99;69.56;100220.94;3133434;28;19995;-77
2023/09/17 01:35:59;;;;;;;;;;;;;;;19.99;69.58;100213.88;3143614;28;20006;-76
2023/09/17 01:37:33;;;;;;;;;;;;;;;19.99;69.35;100211.22;3145420;28;19981;-76
2023/09/17 01:39:05;;;;;;;;;;;;;;;19.99;69.67;100213.88;3136749;28;19928;-76
2023/09/17 01:40:37;;;;;;;;;;;;;;;19.99;69.57;100213.88;3133609;28;20021;-76
2023/09/17 01:42:08;;;;;;;;;;;;;;;20.00;69.68;100214.72;3139176;28;19924;-76
2023/09/17 01:43:43;;;;;;;;;;;;;;;19.99;69.73;100218.28;3127771;28;19929;-76
2023/09/17 01:45:16;;;;;;;;;;;;;;;20.00;69.67;100212.06;3130559;28;19928;-76
2023/09/17 01:46:48;;;;;;;;;;;;;;;19.99;70.06;100215.66;3133436;28;19929;-76
2023/09/17 01:48:20;;;;;;;;;;;;;;;19.98;70.20;100211.34;3133338;28;20028;-76
2023/09/17 01:49:54;;;;;;;;;;;;;;;19.97;70.19;100215.78;3132769;28;19924;-76
2023/09/17 01:51:25;;;;;;;;;;;;;;;19.97;70.02;100207.00;3137430;28;20421;-76
2023/09/17 01:52:57;;;;;;;;;;;;;;;19.95;70.32;100204.47;3133471;28;19931;-76
2023/09/17 01:54:28;;;;;;;;;;;;;;;19.96;70.20;100205.31;3133207;28;19935;-77
2023/09/17 01:56:00;;;;;;;;;;;;;;;19.98;70.09;100209.53;3133079;28;20325;-77
2023/09/17 01:57:31;;;;;;;;;;;;;;;20.00;70.03;100212.91;3133224;28;21248;-75
2023/09/17 01:59:04;;;;;;;;;;;;;;;20.04;69.83;100210.00;3133985;28;19925;-75
2023/09/17 02:00:35;;;;;;;;;;;;;;;20.03;70.25;100209.19;3135270;28;20458;-75
2023/09/17 02:02:07;;;;;;;;;;;;;;;20.02;70.41;100207.47;3134497;28;19999;-75
2023/09/17 02:03:38;;;;;;;;;;;;;;;19.99;70.48;100208.59;3133372;28;20027;-75
2023/09/17 02:05:09;;;;;;;;;;;;;;;20.01;70.51;100211.09;3143802;28;19929;-75
2023/09/17 02:06:41;;;;;;;;;;;;;;;19.99;70.71;100208.59;3145310;28;20156;-74
2023/09/17 02:08:11;;;;;;;;;;;;;;;19.98;70.82;100214.81;3136258;28;19929;-75
2023/09/17 02:09:43;;;;;;;;;;;;;;;19.97;70.78;100212.31;3133041;28;19924;-75
2023/09/17 02:11:13;;;;;;;;;;;;;;;19.96;70.88;100211.44;3140255;28;19935;-75
2023/09/17 02:12:45;;;;;;;;;;;;;;;19.94;71.49;100216.03;3136062;28;19933;-74
2023/09/17 02:14:17;;;;;;;;;;;;;;;19.89;71.52;100207.59;3135325;28;19928;-75
2023/09/17 02:15:49;;;;;;;;;;;;;;;19.88;71.46;100213.84;3132648;28;20024;-73
2023/09/17 02:17:19;;;;;;;;;;;;;;;19.87;71.71;100212.16;3137812;28;20372;-74
2023/09/17 02:18:51;;;;;;;;;;;;;;;19.85;71.69;100216.75;3145185;28;19924;-74
2023/09/17 02:20:23;;;;;;;;;;;;;;;19.83;71.97;100212.53;3142164;28;20479;-76
2023/09/17 02:21:54;;;;;;;;;;;;;;;19.81;71.86;100202.06;3135723;28;19943;-75
2023/09/17 02:23:26;;;;;;;;;;;;;;;19.82;71.84;100210.81;3143660;28;19925;-74
2023/09/17 02:24:56;;;;;;;;;;;;;;;19.81;71.85;100212.63;3132751;28;20028;-74
2023/09/17 02:26:28;;;;;;;;;;;;;;;19.81;72.11;100215.28;3133339;28;19932;-74
2023/09/17 02:28:01;;;;;;;;;;;;;;;19.79;72.24;100214.56;3144907;28;19935;-74
2023/09/17 02:29:33;;;;;;;;;;;;;;;19.79;72.12;100219.84;3130115;28;20457;-74
2023/09/17 02:31:06;;;;;;;;;;;;;;;19.80;72.07;100212.75;3132007;28;19979;-77
2023/09/17 02:32:37;;;;;;;;;;;;;;;19.82;71.87;100216.09;3132851;28;19925;-76
2023/09/17 02:34:09;;;;;;;;;;;;;;;19.84;71.89;100219.47;3139476;28;19925;-76
2023/09/17 02:35:39;;;;;;;;;;;;;;;19.85;71.70;100222.03;3141088;28;19936;-76
2023/09/17 02:37:11;;;;;;;;;;;;;;;19.85;71.64;100218.53;3137645;28;19924;-76
2023/09/17 02:38:41;;;;;;;;;;;;;;;19.84;71.93;100215.03;3133116;28;19929;-76
2023/09/17 02:40:13;;;;;;;;;;;;;;;19.81;72.33;100212.63;3139022;28;19925;-74
2023/09/17 02:41:43;;;;;;;;;;;;;;;19.81;72.31;100214.44;3145411;28;19924;-73
2023/09/17 02:43:15;;;;;;;;;;;;;;;19.81;72.16;100214.44;3132360;28;19925;-73
2023/09/17 02:44:47;;;;;;;;;;;;;;;19.84;72.03;100220.31;3132863;28;19925;-74
2023/09/17 02:46:19;;;;;;;;;;;;;;;19.86;72.02;100212.28;3132286;28;20090;-74
2023/09/17 02:47:51;;;;;;;;;;;;;;;19.86;71.59;100213.13;3133047;28;19925;-73
2023/09/17 02:49:22;;;;;;;;;;;;;;;19.87;71.66;100209.50;3132958;28;20009;-73
2023/09/17 02:50:53;;;;;;;;;;;;;;;19.87;71.78;100196.28;3132578;28;19929;-74
2023/09/17 02:52:24;;;;;;;;;;;;;;;19.85;71.88;100203.53;3131617;28;20058;-72
2023/09/17 02:53:55;;;;;;;;;;;;;;;19.83;71.86;100202.78;3132701;28;19982;-72
2023/09/17 02:55:26;;;;;;;;;;;;;;;19.82;72.00;100211.69;3144333;28;20011;-72
2023/09/17 02:56:58;;;;;;;;;;;;;;;19.80;71.98;100210.13;3139633;28;19924;-72
2023/09/17 02:58:30;;;;;;;;;;;;;;;19.77;72.13;100206.75;3140947;28;19928;-72
2023/09/17 03:00:04;;;;;;;;;;;;;;;19.73;72.21;100205.31;3132161;28;19924;-72
2023/09/17 03:01:36;;;;;;;;;;;;;;;19.71;72.41;100211.66;3141203;28;20290;-73
2023/09/17 03:03:07;;;;;;;;;;;;;;;19.69;72.20;100208.28;3140535;28;19925;-73
2023/09/17 03:04:38;;;;;;;;;;;;;;;19.66;72.44;100206.72;3135111;28;20019;-73
2023/09/17 03:06:10;;;;;;;;;;;;;;;19.62;72.36;100205.25;3135285;28;19929;-73
2023/09/17 03:07:43;;;;;;;;;;;;;;;19.59;72.44;100209.94;3139935;28;20070;-73
2023/09/17 03:09:14;;;;;;;;;;;;;;;19.53;72.58;100206.78;3143086;28;20405;-73
2023/09/17 03:10:45;;;;;;;;;;;;;;;19.51;72.60;100200.78;3135223;28;19962;-74
2023/09/17 03:12:16;;;;;;;;;;;;;;;19.50;72.58;100201.75;3133276;28;19924;-75
2023/09/17 03:13:48;;;;;;;;;;;;;;;19.50;72.54;100195.63;3131991;28;19925;-74
2023/09/17 03:15:20;;;;;;;;;;;;;;;19.50;72.38;100192.97;3137457;28;20341;-74
2023/09/17 03:16:51;;;;;;;;;;;;;;;19.48;72.29;100202.81;3135525;28;19968;-73
2023/09/17 03:18:22;;;;;;;;;;;;;;;19.42;72.34;100198.84;3147568;28;19929;-73
2023/09/17 03:19:53;;;;;;;;;;;;;;;19.36;72.54;100195.81;3147721;28;19997;-73
2023/09/17 03:21:24;;;;;;;;;;;;;;;19.30;72.52;100205.03;3147442;28;19977;-73
2023/09/17 03:22:57;;;;;;;;;;;;;;;19.26;72.60;100199.16;3136894;28;20303;-73
2023/09/17 03:24:28;;;;;;;;;;;;;;;19.23;72.44;100199.41;3144598;28;20295;-73
2023/09/17 03:26:00;;;;;;;;;;;;;;;19.21;72.68;100206.56;3138077;28;20030;-72
2023/09/17 03:27:31;;;;;;;;;;;;;;;19.22;72.52;100205.59;3134912;28;20390;-73
2023/09/17 03:29:03;;;;;;;;;;;;;;;19.22;72.15;100197.69;3135217;28;20019;-72
2023/09/17 03:30:35;;;;;;;;;;;;;;;19.24;72.07;100203.72;3134562;28;19982;-73
2023/09/17 03:32:06;;;;;;;;;;;;;;;19.25;72.04;100200.09;3140472;28;20450;-74
2023/09/17 03:33:37;;;;;;;;;;;;;;;19.26;72.05;100198.31;3147468;28;19978;-73
2023/09/17 03:35:09;;;;;;;;;;;;;;;19.24;72.08;100194.94;3136803;28;19924;-73
2023/09/17 03:36:41;;;;;;;;;;;;;;;19.24;72.00;100194.94;3134802;28;19931;-73
2023/09/17 03:38:11;;;;;;;;;;;;;;;19.24;72.06;100200.22;3137763;28;19932;-73
2023/09/17 03:39:44;;;;;;;;;;;;;;;19.26;71.83;100195.69;3143557;28;20012;-73
2023/09/17 03:41:14;;;;;;;;;;;;;;;19.28;71.84;100191.09;3136236;28;19971;-73
2023/09/17 03:42:47;;;;;;;;;;;;;;;19.28;71.59;100197.22;3139906;28;19925;-77
2023/09/17 03:44:20;;;;;;;;;;;;;;;19.29;71.54;100198.94;3136434;28;19986;-78
2023/09/17 03:45:51;;;;;;;;;;;;;;;19.30;71.68;100189.19;3138642;28;19931;-77
2023/09/17 03:47:23;;;;;;;;;;;;;;;19.29;71.50;100193.66;3147126;28;20488;-77
2023/09/17 03:48:55;;;;;;;;;;;;;;;19.30;71.44;100195.31;3141702;28;19929;-77
2023/09/17 03:50:27;;;;;;;;;;;;;;;19.31;71.51;100196.16;3145592;28;19924;-76
2023/09/17 03:51:59;;;;;;;;;;;;;;;19.30;71.39;100195.31;3145030;28;19925;-76
2023/09/17 03:53:30;;;;;;;;;;;;;;;19.29;71.39;100196.28;3126595;28;19983;-75
2023/09/17 03:55:01;;;;;;;;;;;;;;;19.28;71.44;100199.88;3134633;28;20015;-76
2023/09/17 03:56:32;;;;;;;;;;;;;;;19.29;71.25;100201.56;3134448;28;20055;-76
2023/09/17 03:58:05;;;;;;;;;;;;;;;19.29;71.30;100200.72;3139964;28;20232;-76
2023/09/17 03:59:35;;;;;;;;;;;;;;;19.30;71.32;100200.59;3145050;28;19968;-76
2023/09/17 04:01:09;;;;;;;;;;;;;;;19.30;71.41;100205.88;3134796;28;19932;-76
2023/09/17 04:02:41;;;;;;;;;;;;;;;19.29;71.54;100206.00;3134702;28;19931;-76
2023/09/17 04:04:13;;;;;;;;;;;;;;;19.26;71.42;100208.88;3134650;28;20404;-76
2023/09/17 04:05:43;;;;;;;;;;;;;;;19.24;71.42;100206.34;3134718;28;19994;-76
2023/09/17 04:07:15;;;;;;;;;;;;;;;19.23;71.43;100217.03;3135601;28;19925;-76
2023/09/17 04:08:47;;;;;;;;;;;;;;;19.22;71.67;100210.88;3135484;28;20408;-76
2023/09/17 04:10:18;;;;;;;;;;;;;;;19.22;71.52;100213.53;3134696;28;19925;-76
2023/09/17 04:11:50;;;;;;;;;;;;;;;19.22;71.63;100212.69;3139644;28;20487;-78
2023/09/17 04:13:20;;;;;;;;;;;;;;;19.23;71.29;100212.59;3128708;28;19925;-78
2023/09/17 04:14:52;;;;;;;;;;;;;;;19.25;71.26;100213.31;3134746;28;19932;-78
2023/09/17 04:16:25;;;;;;;;;;;;;;;19.29;71.30;100213.94;3136421;28;19929;-77
2023/09/17 04:17:57;;;;;;;;;;;;;;;19.31;71.17;100215.50;3134708;28;19933;-78
2023/09/17 04:19:27;;;;;;;;;;;;;;;19.32;71.23;100203.97;3134397;28;20397;-77
2023/09/17 04:20:59;;;;;;;;;;;;;;;19.35;70.94;100207.34;3134418;28;19936;-77
2023/09/17 04:22:29;;;;;;;;;;;;;;;19.36;71.05;100209.88;3134446;28;19925;-76
2023/09/17 04:24:03;;;;;;;;;;;;;;;19.36;70.91;100212.50;3134395;28;19924;-76
2023/09/17 04:25:34;;;;;;;;;;;;;;;19.37;70.79;100215.97;3134196;28;19925;-75
2023/09/17 04:27:06;;;;;;;;;;;;;;;19.39;70.97;100211.44;3141224;28;20217;-75
2023/09/17 04:28:37;;;;;;;;;;;;;;;19.39;70.83;100209.63;3140855;28;19928;-76
2023/09/17 04:30:08;;;;;;;;;;;;;;;19.40;71.06;100215.75;3133706;28;19972;-76
2023/09/17 04:31:42;;;;;;;;;;;;;;;19.42;70.91;100213.84;3134524;28;19929;-77
2023/09/17 04:33:14;;;;;;;;;;;;;;;19.42;70.76;100212.03;3134381;28;20543;-76
2023/09/17 04:34:46;;;;;;;;;;;;;;;19.45;70.69;100216.25;3134106;28;19932;-78
2023/09/17 04:36:17;;;;;;;;;;;;;;;19.42;70.90;100205.94;3136528;28;20783;-73
2023/09/17 04:37:49;;;;;;;;;;;;;;;19.48;70.62;100216.03;3144432;28;20325;-74
2023/09/17 04:39:20;;;;;;;;;;;;;;;19.49;70.73;100215.06;3134167;28;19951;-75
2023/09/17 04:40:51;;;;;;;;;;;;;;;19.45;70.95;100218.91;3134281;28;19933;-73
2023/09/17 04:42:23;;;;;;;;;;;;;;;19.39;71.06;100224.66;3132704;28;20010;-72
2023/09/17 04:43:53;;;;;;;;;;;;;;;19.36;71.33;100222.22;3127692;28;20255;-73
2023/09/17 04:45:33;;;;;;;;;;;;;;;19.33;71.52;100228.59;3131212;28;20071;-74
2023/09/17 04:47:06;;;;;;;;;;;;;;;19.29;71.63;100229.78;3122034;28;19937;-77
2023/09/17 04:48:39;;;;;;;;;;;;;;;19.26;71.66;100228.22;3146090;28;19972;-76
2023/09/17 04:50:09;;;;;;;;;;;;;;;19.26;71.74;100220.28;3141148;28;20039;-74
2023/09/17 04:51:41;;;;;;;;;;;;;;;19.28;71.91;100225.44;3133560;28;20023;-78
2023/09/17 04:53:11;;;;;;;;;;;;;;;19.30;71.76;100227.00;3124154;28;19925;-75
2023/09/17 04:54:43;;;;;;;;;;;;;;;19.33;71.87;100224.13;3131406;28;19925;-71
2023/09/17 04:56:15;;;;;;;;;;;;;;;19.39;71.34;100222.84;3133787;28;19929;-77
2023/09/17 04:57:45;;;;;;;;;;;;;;;19.47;71.45;100231.03;3136718;28;19924;-76
2023/09/17 04:59:17;;;;;;;;;;;;;;;19.51;71.19;100229.84;3144122;28;20424;-73
2023/09/17 05:00:48;;;;;;;;;;;;;;;19.57;71.07;100228.53;3133657;28;20027;-73
2023/09/17 05:02:21;;;;;;;;;;;;;;;19.63;70.82;100237.78;3144947;28;19933;-74
2023/09/17 05:03:53;;;;;;;;;;;;;;;19.67;70.64;100234.84;3134919;28;19964;-73
2023/09/17 05:05:24;;;;;;;;;;;;;;;19.72;70.59;100239.75;3133646;28;20314;-73
2023/09/17 05:06:55;;;;;;;;;;;;;;;19.75;70.52;100243.00;3143348;28;19929;-73
2023/09/17 05:08:26;;;;;;;;;;;;;;;19.78;70.36;100242.78;3146298;28;19924;-73
2023/09/17 05:09:58;;;;;;;;;;;;;;;19.82;70.21;100243.41;3138506;28;19925;-69
2023/09/17 05:11:28;;;;;;;;;;;;;;;19.87;70.17;100243.03;3138885;28;20384;-69
2023/09/17 05:13:00;;;;;;;;;;;;;;;19.90;70.28;100240.16;3132870;28;19990;-70
2023/09/17 05:14:31;;;;;;;;;;;;;;;19.94;70.14;100252.19;3133087;28;19929;-70
2023/09/17 05:16:06;;;;;;;;;;;;;;;19.98;69.81;100243.06;3143955;28;19999;-68
2023/09/17 05:17:38;;;;;;;;;;;;;;;20.02;70.03;100241.84;3141696;28;19935;-66
2023/09/17 05:19:09;;;;;;;;;;;;;;;20.05;69.83;100246.06;3133736;28;19970;-66
2023/09/17 05:20:43;;;;;;;;;;;;;;;20.05;69.90;100244.25;3138864;28;20387;-68
2023/09/17 05:22:15;;;;;;;;;;;;;;;20.07;69.93;100246.78;3140243;28;19935;-70
2023/09/17 05:23:47;;;;;;;;;;;;;;;20.10;69.65;100246.56;3139824;28;20394;-64
2023/09/17 05:25:17;;;;;;;;;;;;;;;20.13;69.68;100249.78;3133023;28;19932;-62
2023/09/17 05:26:49;;;;;;;;;;;;;;;20.15;69.68;100244.41;3140804;28;19925;-64
2023/09/17 05:28:21;;;;;;;;;;;;;;;20.17;69.71;100251.25;3142539;28;19936;-66
2023/09/17 05:29:51;;;;;;;;;;;;;;;20.16;69.62;100254.84;3139996;28;19924;-63
2023/09/17 05:31:23;;;;;;;;;;;;;;;20.15;69.71;100253.16;3136104;28;20465;-64
2023/09/17 05:32:56;;;;;;;;;;;;;;;20.17;69.97;100253.91;3131394;28;19925;-69
2023/09/17 05:34:26;;;;;;;;;;;;;;;20.21;69.92;100255.31;3129720;28;19925;-66
2023/09/17 05:35:58;;;;;;;;;;;;;;;20.27;69.85;100255.81;3145527;28;20094;-66
2023/09/17 05:37:28;;;;;;;;;;;;;;;20.30;69.60;100256.41;3133505;28;19936;-68
2023/09/17 05:39:00;;;;;;;;;;;;;;;20.34;69.61;100260.47;3133286;28;19928;-65
2023/09/17 05:40:30;;;;;;;;;;;;;;;20.34;69.88;100259.66;3136648;28;19925;-62
2023/09/17 05:42:02;;;;;;;;;;;;;;;20.34;70.08;100265.78;3141190;28;19931;-63
2023/09/17 05:43:32;;;;;;;;;;;;;;;20.35;69.93;100261.31;3131392;28;19929;-63
2023/09/17 05:45:04;;;;;;;;;;;;;;;20.40;70.04;100261.81;3131489;28;19948;-64
2023/09/17 05:46:36;;;;;;;;;;;;;;;20.44;69.79;100261.47;3136700;28;19928;-61
2023/09/17 05:48:08;;;;;;;;;;;;;;;20.44;70.00;100260.63;3144799;28;20382;-61
2023/09/17 05:49:39;;;;;;;;;;;;;;;20.45;69.78;100260.47;3142547;28;20417;-62
2023/09/17 05:51:10;;;;;;;;;;;;;;;20.46;69.93;100258.69;3143314;28;19925;-67
2023/09/17 05:52:42;;;;;;;;;;;;;;;20.45;69.74;100267.59;3129259;28;19935;-65
2023/09/17 05:54:12;;;;;;;;;;;;;;;20.43;69.87;100265.03;3133180;28;20236;-64
2023/09/17 05:55:44;;;;;;;;;;;;;;;20.43;69.91;100266.84;3133894;28;19931;-67
2023/09/17 05:57:16;;;;;;;;;;;;;;;20.43;69.91;100265.03;3140191;28;19931;-68
2023/09/17 05:58:47;;;;;;;;;;;;;;;20.47;69.86;100265.66;3145838;28;20519;-66
2023/09/17 06:00:19;;;;;;;;;;;;;;;20.54;69.78;100261.59;3134831;28;19925;-66
2023/09/17 06:01:51;;;;;;;;;;;;;;;20.60;69.69;100261.09;3142749;28;20298;-69
2023/09/17 06:03:24;;;;;;;;;;;;;;;20.68;69.58;100257.84;3145796;28;20317;-70
2023/09/17 06:04:54;;;;;;;;;;;;;;;20.79;69.28;100265.75;3145879;28;20011;-68
2023/09/17 06:06:26;;;;;;;;;;;;;;;20.87;68.86;100262.50;3138136;28;19931;-67
2023/09/17 06:07:58;;;;;;;;;;;;;;;20.93;68.65;100267.28;3133093;28;20321;-64
2023/09/17 06:09:28;;;;;;;;;;;;;;;20.97;68.61;100263.44;3132912;28;20493;-62
2023/09/17 06:11:00;;;;;;;;;;;;;;;21.02;68.44;100255.94;3140023;28;19935;-65
2023/09/17 06:12:32;;;;;;;;;;;;;;;21.13;67.98;100255.91;3131241;28;19932;-65
2023/09/17 06:14:03;;;;;;;;;;;;;;;21.26;67.66;100253.09;3134066;28;19974;-67
2023/09/17 06:15:35;;;;;;;;;;;;;;;21.39;67.72;100252.13;3133183;28;19933;-66
2023/09/17 06:17:06;;;;;;;;;;;;;;;21.54;67.44;100256.97;3144913;28;19925;-62
2023/09/17 06:18:39;;;;;;;;;;;;;;;21.69;66.78;100254.03;3134327;28;19925;-66
2023/09/17 06:20:11;;;;;;;;;;;;;;;21.83;66.56;100256.34;3143661;28;19931;-64
2023/09/17 06:21:41;;;;;;;;;;;;;;;21.93;66.10;100257.22;3144584;28;19925;-66
2023/09/17 06:23:13;;;;;;;;;;;;;;;22.02;65.96;100258.25;3136816;28;20023;-65
2023/09/17 06:24:43;;;;;;;;;;;;;;;22.08;65.81;100268.34;3139111;28;20002;-69
2023/09/17 06:26:15;;;;;;;;;;;;;;;22.14;65.70;100272.28;3140217;28;19928;-66
2023/09/17 06:27:45;;;;;;;;;;;;;;;22.19;65.17;100264.78;3132940;28;19932;-68
2023/09/17 06:29:17;;;;;;;;;;;;;;;22.26;65.44;100265.94;3132926;28;19924;-66
2023/09/17 06:30:48;;;;;;;;;;;;;;;22.39;65.33;100269.22;3132929;28;19925;-64
2023/09/17 06:32:20;;;;;;;;;;;;;;;22.50;65.07;100270.91;3134255;28;20042;-65
2023/09/17 06:33:53;;;;;;;;;;;;;;;22.59;64.79;100271.91;3144848;28;19925;-66
2023/09/17 06:35:24;;;;;;;;;;;;;;;22.73;64.81;100270.72;3132872;28;20653;-64
2023/09/17 06:36:55;;;;;;;;;;;;;;;22.88;64.36;100270.16;3120616;28;20383;-68
2023/09/17 06:38:27;;;;;;;;;;;;;;;23.04;63.93;100269.69;3143426;28;20073;-69
2023/09/17 06:39:57;;;;;;;;;;;;;;;23.17;63.73;100270.25;3134118;28;19929;-70
2023/09/17 06:41:29;;;;;;;;;;;;;;;23.29;63.39;100267.47;3132977;28;19928;-68
2023/09/17 06:42:59;;;;;;;;;;;;;;;23.45;63.59;100267.72;3130034;28;19940;-68
2023/09/17 06:44:31;;;;;;;;;;;;;;;23.64;63.32;100268.72;3137186;28;19924;-68
2023/09/17 06:46:02;;;;;;;;;;;;;;;23.81;62.96;100273.28;3139488;28;19931;-65
2023/09/17 06:47:33;;;;;;;;;;;;;;;23.92;62.45;100269.66;3142479;28;19928;-66
2023/09/17 06:49:05;;;;;;;;;;;;;;;24.12;62.53;100267.78;3143461;28;19928;-68
2023/09/17 06:50:37;;;;;;;;;;;;;;;24.43;62.07;100276.34;3142832;28;19944;-72
2023/09/17 06:52:07;;;;;;;;;;;;;;;24.56;60.93;100270.72;3140638;28;19925;-70
2023/09/17 06:53:39;;;;;;;;;;;;;;;24.68;60.83;100272.19;3126200;28;20329;-67
2023/09/17 06:55:10;;;;;;;;;;;;;;;24.85;60.79;100263.38;3132608;28;19970;-69
2023/09/17 06:56:41;;;;;;;;;;;;;;;25.02;59.78;100271.53;3132558;28;19952;-72
2023/09/17 06:58:12;;;;;;;;;;;;;;;25.09;59.41;100265.47;3139451;28;19935;-65
2023/09/17 06:59:43;;;;;;;;;;;;;;;25.26;59.36;100270.97;3138591;28;19933;-68
2023/09/17 07:01:14;;;;;;;;;;;;;;;25.41;58.58;100258.78;3132319;28;19978;-71
2023/09/17 07:02:45;;;;;;;;;;;;;;;25.42;58.09;100266.63;3132398;28;20365;-71
2023/09/17 07:04:17;;;;;;;;;;;;;;;25.39;57.90;100253.59;3132478;28;19935;-70
2023/09/17 07:05:49;;;;;;;;;;;;;;;25.49;58.15;100264.16;3132922;28;20335;-66
2023/09/17 07:07:20;;;;;;;;;;;;;;;25.61;57.08;100259.44;3144993;28;20416;-67
2023/09/17 07:08:52;;;;;;;;;;;;;;;25.79;57.04;100259.38;3145456;28;19925;-69
2023/09/17 07:10:23;;;;;;;;;;;;;;;26.00;57.04;100249.22;3142795;28;19928;-65
2023/09/17 07:11:54;;;;;;;;;;;;;;;26.26;56.58;100257.19;3133110;28;19935;-67
2023/09/17 07:13:25;;;;;;;;;;;;;;;26.52;56.07;100254.50;3129542;28;20011;-69
2023/09/17 07:14:56;;;;;;;;;;;;;;;26.62;55.29;100253.53;3139741;28;19932;-69
2023/09/17 07:16:27;;;;;;;;;;;;;;;26.53;54.71;100261.53;3132598;28;19929;-69
2023/09/17 07:17:58;;;;;;;;;;;;;;;26.51;55.12;100262.69;3143507;28;20366;-69
2023/09/17 07:19:33;;;;;;;;;;;;;;;26.63;55.40;100260.56;3144729;28;20321;-69
2023/09/17 07:21:05;;;;;;;;;;;;;;;26.74;54.85;100255.75;3144848;28;19929;-70
2023/09/17 07:22:35;;;;;;;;;;;;;;;26.65;54.81;100262.06;3135853;28;20008;-69
2023/09/17 07:24:07;;;;;;;;;;;;;;;26.54;54.53;100252.50;3132662;28;19929;-69
2023/09/17 07:25:38;;;;;;;;;;;;;;;26.33;54.13;100258.25;3132031;28;19925;-69
2023/09/17 07:27:09;;;;;;;;;;;;;;;26.30;54.60;100253.22;3139376;28;19983;-69
2023/09/17 07:28:40;;;;;;;;;;;;;;;26.53;54.71;100261.53;3145414;28;19924;-70
2023/09/17 07:30:12;;;;;;;;;;;;;;;26.89;54.36;100260.47;3139015;28;19924;-70
2023/09/17 07:31:44;;;;;;;;;;;;;;;27.13;53.74;100260.50;3132794;28;19932;-70
2023/09/17 07:33:15;;;;;;;;;;;;;;;27.12;53.38;100268.66;3136322;28;20033;-69
2023/09/17 07:34:47;;;;;;;;;;;;;;;26.92;52.75;100260.97;3135164;28;20005;-70
2023/09/17 07:36:19;;;;;;;;;;;;;;;26.61;53.00;100266.03;3144992;28;20472;-69
2023/09/17 07:37:49;;;;;;;;;;;;;;;26.42;53.93;100272.47;3143275;28;20397;-70
2023/09/17 07:39:21;;;;;;;;;;;;;;;26.22;53.79;100273.69;3129327;28;19931;-69
2023/09/17 07:40:52;;;;;;;;;;;;;;;26.02;53.90;100268.56;3145270;28;19924;-70
2023/09/17 07:42:23;;;;;;;;;;;;;;;25.81;54.67;100276.91;3141031;28;20355;-69
2023/09/17 07:43:55;;;;;;;;;;;;;;;25.72;54.93;100269.03;3126326;28;19935;-70
2023/09/17 07:45:25;;;;;;;;;;;;;;;25.51;54.90;100269.38;3130582;28;20398;-70
2023/09/17 07:46:57;;;;;;;;;;;;;;;25.26;55.39;100268.31;3142299;28;19977;-69
2023/09/17 07:48:29;;;;;;;;;;;;;;;25.16;55.99;100269.22;3146693;28;19946;-70
2023/09/17 07:50:02;;;;;;;;;;;;;;;25.30;55.69;100261.69;3146994;28;19994;-68